Buffalo, SD (57720)

6:18 PM MST on February 13, 2016 (GMT -0700)
Hettinger Municipal | | Change Station
CLOSE
Current Station
Airport
Location: Hettinger,
Elevation: 2703 ft
Nearby Weather Stations
Active Advisory: Winter Weather Advisory

Elev 2703 ft 46.01 °N, 102.66 °W | Updated 25 minutes ago

Overcast
Overcast
24 °F
Feels Like 24 °F
N
0
Wind Variable Wind from North

Today
High -- | Low -- °F
--% Chance of Precip.
Yesterday
High -- | Low -- °F
Precip. -- in
Pressure 29.96 in
Visibility 7.0 miles
Clouds Mostly Cloudy 1200 ft
Overcast 1800 ft
Dew Point 21 °F
Humidity 88%
Rainfall 0.00 in
Snow Depth Not available.
7:00 AM 5:18 PM
Waxing Crescent, 36% visible
METAR KHEI 140053Z AUTO 00000KT 7SM BKN012 OVC018 M04/M06 A2983 RMK AO2 SNE02B48E51 SLP145 P0000 T10441061
Pressure 29.96 in
Visibility 7.0 miles
Clouds Mostly Cloudy 1200 ft
Overcast 1800 ft
Dew Point 21 °F
Humidity 88%
Rainfall 0.00 in
Snow Depth Not available.
7:00 AM 5:18 PM
Waxing Crescent, 36% visible
METAR KHEI 140053Z AUTO 00000KT 7SM BKN012 OVC018 M04/M06 A2983 RMK AO2 SNE02B48E51 SLP145 P0000 T10441061

10-Day Weather Forecast

Almanac

Astronomy

Feb. 13, 2016 Rise Set
Actual Time
Civil Twilight
Nautical Twilight
Astronomical Twilight
Moon
Length of Visible Light
Length of Day
Tomorrow will be .
, % of the Moon is Illuminated

Today's Extremes

State Highs State Lows

Community

WunderPhotos

Upload Photos

1,892,723 photos uploaded!

WunderBlog® & News

Nearby

Air Quality

  Air Quality AQ Index Pollutant
Not available.

Snow Depth

Station Depth Elevation

Earthquake Activity

City Distance Mag. Time & Date
Minimum magnitude displayed is 2.5.

Coastal Water Temperatures

Place Temperature

Stations

Nearby Weather Stations

Station Location Temp. Windchill Dew Point Humidity Wind Precip. Elev Updated Type
                   

Watches & Warnings

Winter Weather Advisory
Issued: 4:06 PM MST Feb. 13, 2016 – National Weather Service

... Winter Weather Advisory remains in effect until 8 PM MST this
evening...

A Winter Weather Advisory remains in effect until 8 PM MST this
evening.

* Timing... periods of freezing rain and snow will continue this
afternoon... tapering off in the evening. Precipitation is
expected to change over to mainly rain across much of Harding
County by early evening.

* Main hazard... ice accumulations of a trace to a tenth of an
inch are expected. Snowfall amounts up to 2 inches are
possible... mainly over eastern portions of the area from the
Lemmon area to Dupree.

* Impacts... hazardous travel conditions can be expected.

Precautionary/preparedness actions...

A Winter Weather Advisory means snow and freezing precipitation
will create hazardous conditions. Use caution when outdoors or
traveling.